Time;durP1;ratioP1;P1;durP2;ratioP2;P2;SDS_P1;SDS_P2;PMS_P1;PMS_P2;Temp;Humidity;BMP_temperature;BMP_pressure;BME280_temperature;BME280_humidity;BME280_pressure;Samples;Min_cycle;Max_cycle;Signal;HPM_P1;HPM_P2
2023/08/26 20:54:44;;;;;;;3.75;2.92;;;;;;;;;;6241283;22;20327;31
2023/08/26 20:57:11;;;;;;;3.70;2.90;;;;;;;;;;6182712;23;20107;-87
2023/08/26 20:59:37;;;;;;;3.42;3.03;;;;;;;;;;6181026;23;20063;-87
2023/08/26 21:02:03;;;;;;;5.13;3.45;;;;;;;;;;6154363;23;20024;-87
2023/08/26 21:04:29;;;;;;;5.07;3.70;;;;;;;;;;6180949;23;20435;-87
2023/08/26 21:06:55;;;;;;;4.55;3.50;;;;;;;;;;6181439;23;20017;-87
2023/08/26 21:09:21;;;;;;;5.65;3.90;;;;;;;;;;6181308;23;20021;-87
2023/08/26 21:11:47;;;;;;;4.55;3.80;;;;;;;;;;6154598;23;20457;-87
2023/08/26 21:14:13;;;;;;;4.20;3.80;;;;;;;;;;6180439;23;20121;-90
2023/08/26 21:16:39;;;;;;;5.05;3.80;;;;;;;;;;6181169;23;20017;-90
2023/08/26 21:19:05;;;;;;;4.20;3.80;;;;;;;;;;6154839;23;20048;-89
2023/08/26 21:21:32;;;;;;;4.65;3.90;;;;;;;;;;6155199;23;20052;-90
2023/08/26 21:23:58;;;;;;;4.65;3.90;;;;;;;;;;6154858;23;20013;-90
2023/08/26 21:26:24;;;;;;;4.82;4.28;;;;;;;;;;6181130;23;20020;-90
2023/08/26 21:28:50;;;;;;;7.85;7.05;;;;;;;;;;6182122;23;20009;-90
2023/08/26 21:31:16;;;;;;;11.07;8.90;;;;;;;;;;6156422;23;20021;-89
2023/08/26 21:33:42;;;;;;;14.50;12.27;;;;;;;;;;6182393;23;20095;-89
2023/08/26 21:36:11;;;;;;;14.88;12.40;;;;;;;;;;6181937;23;20095;-89
2023/08/26 21:38:37;;;;;;;17.67;13.88;;;;;;;;;;6183457;23;20243;-89
2023/08/26 21:41:04;;;;;;;18.38;15.25;;;;;;;;;;6183728;23;20048;-89
2023/08/26 21:43:31;;;;;;;20.10;15.77;;;;;;;;;;6182409;23;20009;-90
2023/08/26 21:45:57;;;;;;;17.77;15.00;;;;;;;;;;6183497;23;20458;-89
2023/08/26 21:48:23;;;;;;;19.48;15.25;;;;;;;;;;6185491;23;20025;-89
2023/08/26 21:50:50;;;;;;;21.70;17.85;;;;;;;;;;6184678;23;20121;-90
2023/08/26 21:53:16;;;;;;;23.33;19.30;;;;;;;;;;6183969;23;20024;-89
2023/08/26 21:55:49;;;;;;;27.40;21.45;;;;;;;;;;6178212;23;20075;-88
2023/08/26 21:58:16;;;;;;;31.42;22.73;;;;;;;;;;6159316;23;20032;-89
2023/08/26 22:00:43;;;;;;;28.67;22.98;;;;;;;;;;6156062;23;20338;-89
2023/08/26 22:03:09;;;;;;;23.02;20.17;;;;;;;;;;6155492;23;20031;-90
2023/08/26 22:05:36;;;;;;;25.20;19.42;;;;;;;;;;6183481;23;20040;-89
2023/08/26 22:08:02;;;;;;;23.15;18.80;;;;;;;;;;6182519;23;20502;-89
2023/08/26 22:10:28;;;;;;;21.42;16.48;;;;;;;;;;6183371;23;20016;-87
2023/08/26 22:12:55;;;;;;;18.92;14.65;;;;;;;;;;6155291;23;20067;-88
2023/08/26 22:15:21;;;;;;;17.77;14.38;;;;;;;;;;6155672;23;20136;-87
2023/08/26 22:17:48;;;;;;;14.85;12.27;;;;;;;;;;6181094;23;20470;-86
2023/08/26 22:20:15;;;;;;;12.73;10.77;;;;;;;;;;6183274;23;20013;-87
2023/08/26 22:22:44;;;;;;;11.10;9.63;;;;;;;;;;6182310;23;20158;-87
2023/08/26 22:25:10;;;;;;;11.95;9.27;;;;;;;;;;6156112;23;20052;-88
2023/08/26 22:27:36;;;;;;;9.88;8.40;;;;;;;;;;6182531;23;20041;-87
2023/08/26 22:30:03;;;;;;;9.20;8.07;;;;;;;;;;6183041;23;20017;-87
2023/08/26 22:32:29;;;;;;;10.38;8.60;;;;;;;;;;6154674;23;20063;-87
2023/08/26 22:34:55;;;;;;;9.15;8.00;;;;;;;;;;6182987;23;20088;-87
2023/08/26 22:37:21;;;;;;;10.20;7.90;;;;;;;;;;6182517;23;20513;-87
2023/08/26 22:39:47;;;;;;;8.82;7.53;;;;;;;;;;6182006;23;20084;-87
2023/08/26 22:42:13;;;;;;;8.20;7.35;;;;;;;;;;6155632;23;20067;-87
2023/08/26 22:44:39;;;;;;;8.95;7.82;;;;;;;;;;6182199;23;20334;-86
2023/08/26 22:47:05;;;;;;;8.30;7.38;;;;;;;;;;6181347;23;20049;-87
2023/08/26 22:49:31;;;;;;;9.13;8.23;;;;;;;;;;6182599;23;20009;-87
2023/08/26 22:51:57;;;;;;;9.57;7.75;;;;;;;;;;6155807;23;20020;-88
2023/08/26 22:54:23;;;;;;;9.40;8.35;;;;;;;;;;6182497;23;20021;-87
2023/08/26 22:56:50;;;;;;;8.95;7.97;;;;;;;;;;6182714;23;20024;-87
2023/08/26 22:59:19;;;;;;;9.85;7.63;;;;;;;;;;6182472;23;20040;-87
2023/08/26 23:01:45;;;;;;;10.77;8.82;;;;;;;;;;6181106;23;20017;-87
2023/08/26 23:04:11;;;;;;;10.00;8.93;;;;;;;;;;6182560;23;20025;-87
2023/08/26 23:06:37;;;;;;;11.68;9.30;;;;;;;;;;6182653;23;20013;-87
2023/08/26 23:09:03;;;;;;;9.43;8.15;;;;;;;;;;6182572;23;20025;-86
2023/08/26 23:11:29;;;;;;;9.90;8.73;;;;;;;;;;6155455;23;20021;-87
2023/08/26 23:13:55;;;;;;;10.43;9.05;;;;;;;;;;6154025;23;20096;-87
2023/08/26 23:16:21;;;;;;;10.23;8.55;;;;;;;;;;6180908;23;20080;-87
2023/08/26 23:18:47;;;;;;;10.32;8.98;;;;;;;;;;6155528;23;20055;-87
2023/08/26 23:21:13;;;;;;;14.38;12.32;;;;;;;;;;6181830;23;20068;-87
2023/08/26 23:23:39;;;;;;;17.20;14.45;;;;;;;;;;6155478;23;20020;-87
2023/08/26 23:26:05;;;;;;;16.30;14.32;;;;;;;;;;6181849;23;20013;-87
2023/08/26 23:28:32;;;;;;;16.45;13.90;;;;;;;;;;6155733;23;20028;-87
2023/08/26 23:30:58;;;;;;;16.95;14.52;;;;;;;;;;6180767;23;20230;-87
2023/08/26 23:33:24;;;;;;;16.60;14.60;;;;;;;;;;6182732;23;20021;-87
2023/08/26 23:35:50;;;;;;;17.08;14.40;;;;;;;;;;6182272;23;20013;-87
2023/08/26 23:38:16;;;;;;;15.77;14.05;;;;;;;;;;6155380;23;20113;-87
2023/08/26 23:40:42;;;;;;;15.38;13.13;;;;;;;;;;6181480;23;20023;-87
2023/08/26 23:43:08;;;;;;;14.55;12.75;;;;;;;;;;6181614;23;20040;-87
2023/08/26 23:45:34;;;;;;;16.05;13.27;;;;;;;;;;6180849;23;20036;-86
2023/08/26 23:48:00;;;;;;;16.98;13.90;;;;;;;;;;6154988;23;20021;-87
2023/08/26 23:50:26;;;;;;;17.17;14.90;;;;;;;;;;6182164;23;20017;-87
2023/08/26 23:52:52;;;;;;;17.45;15.00;;;;;;;;;;6181083;23;20354;-86
2023/08/26 23:55:18;;;;;;;20.23;17.05;;;;;;;;;;6163060;23;20446;-87
2023/08/26 23:57:44;;;;;;;20.40;16.65;;;;;;;;;;6183592;23;20108;-87
